Time;durP1;ratioP1;P1;durP2;ratioP2;P2;SDS_P1;SDS_P2;PMS_P1;PMS_P2;Temp;Humidity;BMP_temperature;BMP_pressure;BME280_temperature;BME280_humidity;BME280_pressure;Samples;Min_cycle;Max_cycle;Signal;HPM_P1;HPM_P2
2022/05/11 00:00:12;;;;;;;2.57;0.90;;;18.00;99.90;;;;;;5075080;28;20313;-85
2022/05/11 00:02:39;;;;;;;1.13;1.00;;;17.90;99.90;;;;;;5075115;28;20194;-85
2022/05/11 00:05:08;;;;;;;1.37;1.03;;;17.80;99.90;;;;;;5075180;28;20237;-83
2022/05/11 00:07:35;;;;;;;2.00;1.00;;;17.90;99.90;;;;;;5075174;28;20214;-84
2022/05/11 00:10:03;;;;;;;1.67;1.40;;;17.70;99.90;;;;;;5075422;28;20773;-86
2022/05/11 00:12:30;;;;;;;3.70;1.20;;;17.60;99.90;;;;;;5080222;28;20538;-84
2022/05/11 00:14:58;;;;;;;1.63;1.10;;;17.50;99.90;;;;;;5079774;28;20232;-85
2022/05/11 00:17:25;;;;;;;4.13;1.37;;;17.50;99.90;;;;;;5075064;28;20665;-85
2022/05/11 00:19:52;;;;;;;2.40;1.13;;;17.50;99.90;;;;;;5074800;28;20743;-84
2022/05/11 00:22:19;;;;;;;3.83;1.40;;;17.50;99.90;;;;;;5074958;28;20210;-87
2022/05/11 00:24:46;;;;;;;2.93;1.10;;;17.50;99.90;;;;;;5074508;28;20324;-88
2022/05/11 00:27:13;;;;;;;2.33;1.10;;;17.50;99.90;;;;;;5074842;28;20284;-88
2022/05/11 00:29:39;;;;;;;2.57;1.40;;;17.50;99.90;;;;;;5074466;28;20212;-88
2022/05/11 00:32:09;;;;;;;1.87;1.47;;;17.50;99.90;;;;;;5074539;28;20216;-87
2022/05/11 00:34:35;;;;;;;3.83;1.40;;;17.50;99.90;;;;;;5074816;28;20197;-87
2022/05/11 00:37:02;;;;;;;4.10;1.35;;;17.60;99.90;;;;;;5073744;28;20432;-88
2022/05/11 00:39:29;;;;;;;1.70;1.20;;;17.80;99.90;;;;;;5074437;28;20197;-87
2022/05/11 00:41:56;;;;;;;2.50;1.00;;;17.80;99.90;;;;;;5074501;28;20205;-88
2022/05/11 00:44:22;;;;;;;1.73;1.10;;;17.80;99.90;;;;;;5074364;28;20234;-88
2022/05/11 00:46:57;;;;;;;2.43;1.20;;;17.70;99.90;;;;;;5073275;28;20206;-88
2022/05/11 00:49:35;;;;;;;1.50;1.40;;;17.60;99.90;;;;;;5074294;28;20209;-87
2022/05/11 00:52:06;;;;;;;2.73;1.33;;;17.50;99.90;;;;;;5074429;28;20209;-85
2022/05/11 00:54:35;;;;;;;2.63;1.27;;;17.50;99.90;;;;;;5073609;28;20213;-86
2022/05/11 00:57:07;;;;;;;1.27;1.17;;;17.50;99.90;;;;;;5074491;28;20602;-89
2022/05/11 00:59:39;;;;;;;1.57;1.23;;;17.40;99.90;;;;;;5074079;28;20225;-86
2022/05/11 01:02:06;;;;;;;1.27;1.27;;;17.40;99.90;;;;;;5073429;28;20219;-84
2022/05/11 01:04:38;;;;;;;3.10;1.40;;;17.30;99.90;;;;;;5072761;28;20236;-86
2022/05/11 01:07:06;;;;;;;1.80;1.23;;;17.40;99.90;;;;;;5072597;28;20200;-86
2022/05/11 01:09:33;;;;;;;1.43;1.20;;;17.40;99.90;;;;;;5074080;28;20209;-86
2022/05/11 01:12:02;;;;;;;2.67;1.23;;;17.50;99.90;;;;;;5073062;28;20205;-86
2022/05/11 01:14:32;;;;;;;5.57;1.50;;;17.60;99.90;;;;;;5074105;28;20200;-86
2022/05/11 01:17:00;;;;;;;1.70;1.10;;;17.40;99.90;;;;;;5073609;28;20198;-86
2022/05/11 01:19:29;;;;;;;3.83;1.50;;;17.40;99.90;;;;;;5074110;28;20197;-86
2022/05/11 01:22:03;;;;;;;3.23;1.23;;;17.40;99.90;;;;;;5074397;28;20678;-86
2022/05/11 01:24:35;;;;;;;1.85;1.25;;;17.40;99.90;;;;;;5073510;28;20475;-86
2022/05/11 01:27:27;;;;;;;2.07;1.23;;;17.40;99.90;;;;;;5073805;28;20220;-86
2022/05/11 01:29:54;;;;;;;1.60;1.07;;;17.50;99.90;;;;;;5073364;28;20198;-85
2022/05/11 01:32:23;;;;;;;1.47;1.00;;;17.40;99.90;;;;;;5074074;28;20209;-86
2022/05/11 01:34:53;;;;;;;1.93;1.53;;;17.40;99.90;;;;;;5073772;28;20663;-86
2022/05/11 01:37:20;;;;;;;4.33;1.30;;;17.40;99.90;;;;;;5073925;28;20197;-86
2022/05/11 01:39:50;;;;;;;2.17;1.33;;;17.40;99.90;;;;;;5073709;28;20202;-87
2022/05/11 01:42:18;;;;;;;2.03;1.10;;;17.40;99.90;;;;;;5073756;28;20224;-86
2022/05/11 01:44:45;;;;;;;1.33;1.20;;;17.30;99.90;;;;;;5073314;28;20235;-87
2022/05/11 01:47:11;;;;;;;1.37;1.27;;;17.30;99.90;;;;;;5073926;28;20216;-86
2022/05/11 01:49:38;;;;;;;2.78;1.40;;;17.20;99.90;;;;;;5072808;28;20419;-86
2022/05/11 01:52:06;;;;;;;1.83;1.23;;;17.30;99.90;;;;;;5073527;28;20266;-86
2022/05/11 01:54:32;;;;;;;5.70;1.43;;;17.30;99.90;;;;;;5073687;28;20208;-87
2022/05/11 01:57:01;;;;;;;6.47;1.70;;;17.30;99.90;;;;;;5074213;28;20204;-87
2022/05/11 01:59:27;;;;;;;2.07;1.13;;;17.20;99.90;;;;;;5081266;28;20687;-87
2022/05/11 02:01:54;;;;;;;1.43;1.33;;;17.20;99.90;;;;;;5081630;28;20207;-85
2022/05/11 02:09:49;;;;;;;4.07;1.43;;;17.20;99.90;;;;;;5077483;28;20251;-87
2022/05/11 02:12:18;;;;;;;1.93;1.27;;;17.20;99.90;;;;;;5077520;28;20197;-86
2022/05/11 02:14:44;;;;;;;1.63;1.23;;;17.10;99.90;;;;;;5077445;28;20194;-85
2022/05/11 02:17:12;;;;;;;1.37;1.27;;;17.10;99.90;;;;;;5077313;28;20239;-85
2022/05/11 02:19:39;;;;;;;2.90;1.30;;;17.10;99.90;;;;;;5077571;28;20193;-86
2022/05/11 02:22:06;;;;;;;2.60;1.73;;;17.20;99.90;;;;;;5077202;28;20208;-87
2022/05/11 02:24:33;;;;;;;2.43;1.40;;;17.20;99.90;;;;;;5077224;28;20272;-86
2022/05/11 02:27:02;;;;;;;1.63;1.20;;;17.10;99.90;;;;;;5077377;28;20220;-86
2022/05/11 02:29:30;;;;;;;3.90;1.30;;;17.00;99.90;;;;;;5076863;28;20208;-86
2022/05/11 02:31:57;;;;;;;2.93;1.50;;;17.10;99.90;;;;;;5077225;28;20213;-86
2022/05/11 02:37:08;;;;;;;2.40;1.50;;;17.10;99.90;;;;;;5076876;28;20325;-86
2022/05/11 02:39:35;;;;;;;1.87;1.37;;;17.10;99.90;;;;;;5077065;28;20209;-86
2022/05/11 02:42:01;;;;;;;3.30;1.50;;;17.00;99.90;;;;;;5076608;28;20216;-87
2022/05/11 02:44:30;;;;;;;3.40;1.43;;;17.00;99.90;;;;;;5076704;28;20220;-84
2022/05/11 02:46:57;;;;;;;2.03;1.40;;;17.00;99.90;;;;;;5077095;28;20554;-86
2022/05/11 02:49:24;;;;;;;3.50;1.33;;;17.00;99.90;;;;;;5076922;28;20200;-87
2022/05/11 02:51:51;;;;;;;3.00;1.70;;;17.00;99.90;;;;;;5076807;28;20193;-87
2022/05/11 02:54:17;;;;;;;2.77;1.50;;;16.90;99.90;;;;;;5076801;28;20208;-86
2022/05/11 02:56:45;;;;;;;2.47;1.47;;;16.80;99.90;;;;;;5076143;28;20199;-86
2022/05/11 02:59:12;;;;;;;1.67;1.40;;;16.80;99.90;;;;;;5076533;28;20217;-86
2022/05/11 03:01:40;;;;;;;2.40;1.30;;;16.70;99.90;;;;;;5076855;28;20202;-86
2022/05/11 03:04:07;;;;;;;2.10;1.33;;;16.60;99.90;;;;;;5076681;28;20202;-87
2022/05/11 03:06:34;;;;;;;2.03;1.43;;;16.60;99.90;;;;;;5076580;28;20224;-87
2022/05/11 03:09:01;;;;;;;1.63;1.30;;;16.60;99.90;;;;;;5076395;28;20205;-86
2022/05/11 03:11:28;;;;;;;4.10;1.30;;;16.40;99.90;;;;;;5075899;28;20658;-86
2022/05/11 03:13:54;;;;;;;2.53;1.60;;;16.50;99.90;;;;;;5076391;28;20203;-86
2022/05/11 03:16:21;;;;;;;1.73;1.50;;;16.40;99.90;;;;;;5076472;28;20215;-86
2022/05/11 03:18:49;;;;;;;1.67;1.50;;;16.50;99.90;;;;;;5075705;28;20654;-85
2022/05/11 03:21:17;;;;;;;2.90;1.73;;;16.50;99.90;;;;;;5076146;28;20204;-88
2022/05/11 03:23:44;;;;;;;1.47;1.37;;;16.40;99.90;;;;;;5077261;28;20208;-86
2022/05/11 03:26:14;;;;;;;2.13;1.50;;;16.40;99.90;;;;;;5078993;28;20439;-85
2022/05/11 03:28:41;;;;;;;4.80;1.60;;;16.50;99.90;;;;;;5081222;28;20639;-86
2022/05/11 03:31:08;;;;;;;3.33;1.40;;;16.40;99.90;;;;;;5081347;28;20203;-86
2022/05/11 03:36:21;;;;;;;2.63;1.57;;;16.40;99.90;;;;;;5082141;28;20253;-86
2022/05/11 03:38:48;;;;;;;2.33;1.63;;;16.20;99.90;;;;;;5076149;28;20198;-84
2022/05/11 03:41:15;;;;;;;3.97;1.60;;;16.00;99.90;;;;;;5075524;28;20200;-83
2022/05/11 03:43:41;;;;;;;2.43;1.40;;;16.10;99.90;;;;;;5075919;28;20202;-85
2022/05/11 03:46:08;;;;;;;4.37;1.50;;;16.00;99.90;;;;;;5075676;28;20717;-85
2022/05/11 03:48:37;;;;;;;3.57;1.53;;;15.90;99.90;;;;;;5075713;28;20207;-84
2022/05/11 03:51:04;;;;;;;3.83;1.90;;;15.90;99.90;;;;;;5074161;28;20791;-85
2022/05/11 03:53:34;;;;;;;3.43;1.70;;;16.00;99.90;;;;;;5075655;28;20199;-84
2022/05/11 03:56:01;;;;;;;4.53;2.10;;;16.20;99.90;;;;;;5075107;28;20619;-84
2022/05/11 03:58:27;;;;;;;2.00;1.50;;;16.10;99.90;;;;;;5075333;28;20213;-84
2022/05/11 04:00:55;;;;;;;6.27;2.17;;;16.00;99.90;;;;;;5076102;28;20223;-86
2022/05/11 04:03:23;;;;;;;2.73;1.77;;;15.80;99.90;;;;;;5075319;28;20233;-85
2022/05/11 04:05:49;;;;;;;4.57;2.23;;;15.70;99.90;;;;;;5075216;28;20242;-85
2022/05/11 04:08:16;;;;;;;5.17;1.77;;;15.70;99.90;;;;;;5074827;28;20194;-85
2022/05/11 04:10:44;;;;;;;4.17;1.40;;;15.60;99.90;;;;;;5074700;28;20198;-84
2022/05/11 04:13:12;;;;;;;1.83;1.60;;;15.60;99.90;;;;;;5075054;28;20198;-85
2022/05/11 04:15:39;;;;;;;3.07;1.67;;;15.50;99.90;;;;;;5074748;28;20210;-84
2022/05/11 04:18:06;;;;;;;3.83;1.80;;;15.40;99.90;;;;;;5074776;28;20263;-84
2022/05/11 04:20:33;;;;;;;4.07;1.80;;;15.30;99.90;;;;;;5074715;28;20201;-84
2022/05/11 04:23:00;;;;;;;3.17;1.80;;;15.30;99.90;;;;;;5074491;28;20535;-83
2022/05/11 04:25:26;;;;;;;2.90;1.73;;;15.40;99.90;;;;;;5074210;28;20582;-84
2022/05/11 04:27:55;;;;;;;3.73;1.47;;;15.30;99.90;;;;;;5074511;28;20205;-85
2022/05/11 04:30:22;;;;;;;4.13;1.90;;;15.20;99.90;;;;;;5073217;28;20202;-85
2022/05/11 04:32:49;;;;;;;5.37;1.93;;;15.20;99.90;;;;;;5074419;28;20666;-85
2022/05/11 04:35:16;;;;;;;2.70;1.83;;;15.10;99.90;;;;;;5074435;28;20209;-84
2022/05/11 04:37:44;;;;;;;6.33;2.20;;;15.00;99.90;;;;;;5074021;28;20201;-85
2022/05/11 04:40:11;;;;;;;4.10;1.93;;;15.10;99.90;;;;;;5074271;28;20205;-85
2022/05/11 04:42:38;;;;;;;7.47;2.13;;;15.00;99.90;;;;;;5073991;28;20194;-85
2022/05/11 04:45:07;;;;;;;6.63;2.20;;;14.90;99.90;;;;;;5073772;28;20219;-86
2022/05/11 04:47:34;;;;;;;5.13;1.60;;;14.80;99.90;;;;;;5074447;28;20201;-85
2022/05/11 04:50:01;;;;;;;7.00;2.17;;;14.70;99.90;;;;;;5074137;28;20213;-86
2022/05/11 04:52:28;;;;;;;6.17;1.77;;;14.80;99.90;;;;;;5074023;28;20201;-83
2022/05/11 04:54:54;;;;;;;4.00;1.93;;;14.70;99.90;;;;;;5073965;28;20194;-83
2022/05/11 04:57:22;;;;;;;4.47;1.87;;;14.70;99.90;;;;;;5074052;28;20205;-86
2022/05/11 04:59:50;;;;;;;5.23;2.20;;;14.70;99.90;;;;;;5073524;28;20225;-84
2022/05/11 05:02:20;;;;;;;7.20;2.20;;;14.70;99.90;;;;;;5077401;28;20219;-88
2022/05/11 05:04:48;;;;;;;5.90;2.57;;;14.60;99.90;;;;;;5071922;28;20208;-86
2022/05/11 05:07:15;;;;;;;5.90;1.97;;;14.50;99.90;;;;;;5072624;28;20221;-87
2022/05/11 05:09:42;;;;;;;4.60;2.33;;;14.60;99.90;;;;;;5073936;28;20688;-85
2022/05/11 05:12:11;;;;;;;6.07;2.17;;;14.70;99.90;;;;;;5074125;28;20216;-85
2022/05/11 05:14:38;;;;;;;10.00;2.20;;;14.60;99.90;;;;;;5073835;28;20204;-86
2022/05/11 05:17:07;;;;;;;8.10;1.80;;;14.70;99.90;;;;;;5073238;28;20683;-86
2022/05/11 05:19:37;;;;;;;2.50;1.50;;;14.60;99.90;;;;;;5073800;28;20213;-86
2022/05/11 05:22:05;;;;;;;9.03;1.97;;;14.60;99.90;;;;;;5073852;28;20212;-88
2022/05/11 05:24:32;;;;;;;5.37;1.90;;;14.60;99.90;;;;;;5073700;28;20197;-87
2022/05/11 05:27:00;;;;;;;11.17;2.07;;;14.60;99.90;;;;;;5073602;28;20225;-86
2022/05/11 05:32:12;;;;;;;4.63;1.80;;;14.70;99.90;;;;;;5073656;28;20271;-86
2022/05/11 05:34:40;;;;;;;4.47;2.10;;;14.80;99.90;;;;;;5072392;28;20608;-85
2022/05/11 05:37:07;;;;;;;5.63;2.30;;;14.80;99.90;;;;;;5073350;28;20204;-86
2022/05/11 05:39:33;;;;;;;3.90;1.73;;;14.80;99.90;;;;;;5073475;28;20196;-86
2022/05/11 05:42:00;;;;;;;6.00;2.10;;;14.80;99.90;;;;;;5073441;28;20230;-87
2022/05/11 05:44:31;;;;;;;4.67;1.70;;;14.90;99.90;;;;;;5073392;28;20206;-85
2022/05/11 05:47:02;;;;;;;8.40;2.30;;;15.00;99.90;;;;;;5073273;28;20229;-86
2022/05/11 05:49:30;;;;;;;6.50;1.83;;;14.90;99.90;;;;;;5073399;28;20229;-86
2022/05/11 05:51:59;;;;;;;4.43;1.43;;;15.00;99.90;;;;;;5073237;28;20205;-85
2022/05/11 05:54:26;;;;;;;8.23;2.10;;;15.00;99.90;;;;;;5073310;28;20209;-86
2022/05/11 05:56:54;;;;;;;4.80;1.97;;;15.10;99.90;;;;;;5073602;28;20204;-88
2022/05/11 05:59:21;;;;;;;5.90;1.87;;;15.10;99.90;;;;;;5073492;28;20228;-86
2022/05/11 06:01:48;;;;;;;5.67;1.63;;;15.10;99.90;;;;;;5073237;28;20653;-86
2022/05/11 06:04:14;;;;;;;4.87;1.67;;;15.20;99.90;;;;;;5073788;28;20212;-88
2022/05/11 06:06:41;;;;;;;6.37;1.90;;;15.20;99.90;;;;;;5073269;28;20233;-92
2022/05/11 06:09:10;;;;;;;7.33;1.57;;;15.20;99.90;;;;;;5074426;28;20201;-88
2022/05/11 06:11:37;;;;;;;5.07;1.97;;;15.20;99.90;;;;;;5073693;28;20656;-87
2022/05/11 06:14:05;;;;;;;4.57;1.93;;;15.20;99.90;;;;;;5074362;28;20206;-87
2022/05/11 06:16:32;;;;;;;2.07;1.30;;;15.30;99.90;;;;;;5073471;28;20202;-88
2022/05/11 06:18:59;;;;;;;3.53;1.80;;;15.20;99.90;;;;;;5073609;28;20629;-89
2022/05/11 06:21:26;;;;;;;3.93;1.80;;;15.10;99.90;;;;;;5073279;28;20213;-87
2022/05/11 06:23:53;;;;;;;4.53;1.70;;;15.20;99.90;;;;;;5073730;28;20198;-88
2022/05/11 06:26:21;;;;;;;5.47;1.50;;;15.30;99.90;;;;;;5073519;28;20681;-88
2022/05/11 06:28:48;;;;;;;3.00;1.13;;;15.30;99.90;;;;;;5073680;28;20212;-89
2022/05/11 06:31:15;;;;;;;3.13;1.17;;;15.40;99.90;;;;;;5073445;28;20205;-86
2022/05/11 06:33:46;;;;;;;3.27;1.40;;;15.40;99.90;;;;;;5073944;28;20209;-86
2022/05/11 06:36:13;;;;;;;6.57;1.77;;;15.50;99.90;;;;;;5078600;28;20210;-86
2022/05/11 06:38:40;;;;;;;4.43;1.40;;;15.50;99.90;;;;;;5080248;28;20205;-89
2022/05/11 06:41:10;;;;;;;4.47;1.43;;;15.60;99.90;;;;;;5073271;28;20206;-88
2022/05/11 06:43:38;;;;;;;5.00;1.33;;;15.70;99.90;;;;;;5073398;28;20194;-88
2022/05/11 06:46:05;;;;;;;2.90;1.27;;;15.70;99.90;;;;;;5073197;28;20226;-88
2022/05/11 06:48:32;;;;;;;5.83;1.40;;;15.70;99.90;;;;;;5073175;28;20186;-88
2022/05/11 06:50:59;;;;;;;5.20;1.17;;;15.70;99.90;;;;;;5073208;28;20194;-87
2022/05/11 06:53:26;;;;;;;7.17;1.63;;;15.80;99.90;;;;;;5075468;28;20202;-87
2022/05/11 07:01:24;;;;;;;7.30;1.33;;;16.30;99.90;;;;;;5076803;28;20189;-86
2022/05/11 07:03:51;;;;;;;8.33;1.60;;;16.50;99.90;;;;;;5076672;28;20205;-87
2022/05/11 07:06:18;;;;;;;2.93;1.60;;;16.40;99.90;;;;;;5076619;28;20255;-87
2022/05/11 07:08:45;;;;;;;7.77;1.63;;;16.40;99.90;;;;;;5076329;28;20210;-88
2022/05/11 07:13:55;;;;;;;3.93;1.73;;;16.50;99.90;;;;;;5053554;28;20194;-88
2022/05/11 07:16:24;;;;;;;7.40;1.73;;;16.50;99.90;;;;;;5076621;28;20214;-88
2022/05/11 07:18:51;;;;;;;3.93;1.37;;;16.50;99.90;;;;;;5075576;28;20283;-86
2022/05/11 07:21:17;;;;;;;5.57;1.80;;;16.70;99.90;;;;;;5076251;28;20598;-87
2022/05/11 07:23:44;;;;;;;5.03;1.30;;;16.70;99.90;;;;;;5075111;28;20191;-86
2022/05/11 07:26:11;;;;;;;6.87;1.70;;;16.80;99.90;;;;;;5076013;28;20230;-86
2022/05/11 07:28:38;;;;;;;5.57;1.60;;;16.90;99.90;;;;;;5075271;28;20903;-87
2022/05/11 07:31:06;;;;;;;3.10;1.43;;;16.90;99.90;;;;;;5076095;28;20203;-88
2022/05/11 07:33:33;;;;;;;8.33;2.00;;;16.80;99.90;;;;;;5075630;28;20621;-87
2022/05/11 07:36:00;;;;;;;3.97;1.53;;;16.80;99.90;;;;;;5076204;28;20215;-86
2022/05/11 07:38:27;;;;;;;4.67;1.57;;;17.10;99.90;;;;;;5075463;28;20219;-85
2022/05/11 07:40:54;;;;;;;6.60;1.60;;;17.30;99.90;;;;;;5074928;28;20193;-86
2022/05/11 07:43:21;;;;;;;2.53;1.27;;;17.20;99.90;;;;;;5075521;28;20690;-86
2022/05/11 07:45:48;;;;;;;7.77;1.60;;;17.20;99.90;;;;;;5075552;28;20211;-87
2022/05/11 07:48:19;;;;;;;7.07;2.20;;;17.10;99.90;;;;;;5075161;28;20204;-86
2022/05/11 07:50:45;;;;;;;7.27;1.40;;;17.10;99.90;;;;;;5075783;28;20206;-86
2022/05/11 07:53:12;;;;;;;8.10;2.10;;;17.20;99.90;;;;;;5073573;28;20420;-85
2022/05/11 07:55:39;;;;;;;3.77;1.77;;;17.20;99.90;;;;;;5075411;28;20213;-86
2022/05/11 08:00:50;;;;;;;8.80;1.77;;;17.40;99.90;;;;;;5075213;28;20579;-84
2022/05/11 08:03:18;;;;;;;6.77;1.70;;;17.50;99.90;;;;;;5074783;28;20205;-84
2022/05/11 08:05:45;;;;;;;5.20;1.90;;;17.50;99.90;;;;;;5075138;28;20218;-85
2022/05/11 08:08:12;;;;;;;6.53;1.63;;;17.60;99.90;;;;;;5074865;28;20236;-84
2022/05/11 08:10:41;;;;;;;8.00;1.90;;;17.60;99.90;;;;;;5074943;28;20206;-85
2022/05/11 08:13:08;;;;;;;4.97;2.00;;;17.50;99.90;;;;;;5074925;28;20216;-85
2022/05/11 08:15:36;;;;;;;9.00;1.80;;;17.60;99.90;;;;;;5074806;28;20209;-87
2022/05/11 08:18:05;;;;;;;6.65;1.98;;;17.60;99.90;;;;;;5074474;28;20923;-85
2022/05/11 08:20:36;;;;;;;6.77;1.97;;;17.70;99.90;;;;;;5075408;28;20263;-86
2022/05/11 08:23:05;;;;;;;5.70;1.67;;;17.60;99.90;;;;;;5076368;28;20206;-85
2022/05/11 08:25:34;;;;;;;4.63;1.80;;;17.60;99.90;;;;;;5075962;28;20194;-85
2022/05/11 08:28:02;;;;;;;7.80;1.90;;;17.80;99.90;;;;;;5074999;28;20226;-86
2022/05/11 08:33:34;;;;;;;6.53;1.90;;;17.80;99.90;;;;;;5074710;28;20650;-85
2022/05/11 08:36:04;;;;;;;5.10;1.60;;;17.80;99.90;;;;;;5076911;28;20213;-84
2022/05/11 08:38:33;;;;;;;4.87;1.97;;;17.80;99.90;;;;;;5074669;28;20201;-85
2022/05/11 08:41:05;;;;;;;7.80;2.07;;;17.80;99.90;;;;;;5074746;28;20206;-85
2022/05/11 08:43:33;;;;;;;5.20;1.77;;;17.80;99.90;;;;;;5074392;28;20206;-87
2022/05/11 08:46:11;;;;;;;6.07;2.20;;;17.90;99.90;;;;;;5073941;28;20220;-85
2022/05/11 08:48:47;;;;;;;6.57;1.70;;;18.00;99.90;;;;;;5074307;28;20197;-84
2022/05/11 08:51:25;;;;;;;6.80;1.60;;;18.20;99.90;;;;;;5074668;28;20210;-84
2022/05/11 08:54:00;;;;;;;3.97;1.53;;;18.10;99.90;;;;;;5074099;28;20559;-85
2022/05/11 08:56:29;;;;;;;6.90;1.77;;;17.90;99.90;;;;;;5073894;28;20189;-84
2022/05/11 08:58:57;;;;;;;4.67;1.60;;;18.10;99.90;;;;;;5073564;28;20548;-85
2022/05/11 09:01:29;;;;;;;6.97;1.83;;;18.30;99.90;;;;;;5074481;28;20202;-88
2022/05/11 09:04:00;;;;;;;9.73;1.97;;;18.40;99.90;;;;;;5074325;28;20229;-85
2022/05/11 09:06:30;;;;;;;5.63;1.95;;;18.50;99.90;;;;;;5073243;28;20425;-85
2022/05/11 09:09:00;;;;;;;7.73;1.70;;;18.50;99.90;;;;;;5074006;28;20564;-84
2022/05/11 09:11:29;;;;;;;5.03;1.87;;;18.50;99.90;;;;;;5073593;28;20187;-84
2022/05/11 09:13:58;;;;;;;4.40;2.17;;;18.80;99.90;;;;;;5073518;28;20192;-86
2022/05/11 09:16:27;;;;;;;3.97;1.90;;;19.10;99.90;;;;;;5072883;28;20610;-85
2022/05/11 09:18:56;;;;;;;5.80;1.93;;;19.10;99.90;;;;;;5073609;28;20196;-86
2022/05/11 09:21:30;;;;;;;7.17;2.57;;;19.20;99.90;;;;;;5073785;28;20217;-83
2022/05/11 09:24:08;;;;;;;4.80;1.97;;;19.20;99.90;;;;;;5074031;28;20590;-83
2022/05/11 09:26:37;;;;;;;7.50;2.70;;;19.30;99.90;;;;;;5073325;28;20224;-82
2022/05/11 09:29:18;;;;;;;5.00;2.30;;;19.50;99.90;;;;;;5073033;28;20208;-85
2022/05/11 09:31:46;;;;;;;8.23;3.10;;;19.60;99.90;;;;;;5072366;28;20428;-86
2022/05/11 09:34:18;;;;;;;6.53;2.50;;;19.60;99.90;;;;;;5073721;28;20451;-86
2022/05/11 09:36:56;;;;;;;6.03;2.50;;;19.70;99.90;;;;;;5073371;28;20292;-84
2022/05/11 09:39:24;;;;;;;113.53;8.50;;;19.80;99.90;;;;;;5073644;28;20212;-84
2022/05/11 09:41:52;;;;;;;15.23;2.70;;;19.50;99.90;;;;;;5073668;28;20204;-84
2022/05/11 09:44:22;;;;;;;6.50;2.53;;;19.60;99.90;;;;;;5073087;28;20299;-84
2022/05/11 09:46:49;;;;;;;8.90;3.00;;;19.60;99.90;;;;;;5073358;28;20238;-85
2022/05/11 09:49:26;;;;;;;6.00;2.33;;;19.50;99.90;;;;;;5073304;28;20197;-86
2022/05/11 09:51:56;;;;;;;4.90;2.40;;;19.70;99.90;;;;;;5073262;28;20205;-85
2022/05/11 09:54:29;;;;;;;9.63;3.10;;;19.80;99.90;;;;;;5073271;28;20565;-84
2022/05/11 09:57:01;;;;;;;5.90;2.50;;;19.30;99.90;;;;;;5073088;28;20209;-85
2022/05/11 09:59:30;;;;;;;9.10;3.00;;;19.20;99.90;;;;;;5073114;28;20226;-85
2022/05/11 10:02:18;;;;;;;6.10;2.60;;;19.10;99.90;;;;;;5073527;28;20211;-85
2022/05/11 10:04:50;;;;;;;5.23;2.53;;;18.90;99.90;;;;;;5073269;28;20234;-84
2022/05/11 10:07:19;;;;;;;11.40;3.33;;;18.80;99.90;;;;;;5073491;28;20230;-85
2022/05/11 10:09:51;;;;;;;5.10;2.63;;;18.90;99.90;;;;;;5073029;28;20240;-83
2022/05/11 10:12:22;;;;;;;8.43;3.10;;;19.00;99.90;;;;;;5072945;28;20669;-85
2022/05/11 10:23:20;;;;;;;6.97;3.10;;;19.80;99.90;;;;;;5073010;28;20329;-83
2022/05/11 10:25:50;;;;;;;4.20;2.87;;;19.70;99.90;;;;;;5072446;28;20288;-83
2022/05/11 10:28:26;;;;;;;5.37;2.60;;;19.50;99.90;;;;;;5075179;28;20229;-83
2022/05/11 10:30:57;;;;;;;7.67;3.30;;;19.50;99.90;;;;;;5076763;28;20206;-82
2022/05/11 10:33:49;;;;;;;6.20;2.80;;;19.80;99.90;;;;;;5077013;28;20200;-85
2022/05/11 10:36:25;;;;;;;7.60;3.00;;;19.90;99.90;;;;;;5076508;28;20206;-88
2022/05/11 10:39:11;;;;;;;8.97;3.57;;;19.70;99.90;;;;;;5076570;28;20195;-85
2022/05/11 10:41:43;;;;;;;4.30;2.50;;;19.90;99.90;;;;;;5076313;28;20193;-84
2022/05/11 10:44:32;;;;;;;6.60;2.93;;;20.20;99.90;;;;;;5076470;28;20205;-85
2022/05/11 10:47:07;;;;;;;7.50;3.07;;;20.30;99.90;;;;;;5076645;28;20223;-85
2022/05/11 10:50:01;;;;;;;12.50;3.50;;;20.40;99.90;;;;;;5076342;28;20198;-86
2022/05/11 10:52:54;;;;;;;12.87;2.97;;;20.40;99.90;;;;;;5076358;28;20215;-82
2022/05/11 10:55:27;;;;;;;9.83;3.33;;;20.20;99.90;;;;;;5070505;28;20679;-86
2022/05/11 10:58:15;;;;;;;10.70;3.20;;;20.20;99.90;;;;;;5075939;28;20559;-84
2022/05/11 11:00:46;;;;;;;6.77;3.47;;;20.20;99.90;;;;;;5076055;28;20222;-86
2022/05/11 11:03:47;;;;;;;6.57;3.20;;;20.30;99.90;;;;;;5076791;28;20186;-89
2022/05/11 11:09:32;;;;;;;29.67;5.23;;;20.60;99.90;;;;;;5076669;28;20396;-89
2022/05/11 11:12:08;;;;;;;5.03;3.07;;;20.40;99.90;;;;;;5076736;28;20233;-87
2022/05/11 11:14:38;;;;;;;10.33;3.23;;;20.40;99.90;;;;;;5076576;28;20205;-90
2022/05/11 11:17:07;;;;;;;9.00;2.70;;;20.50;99.90;;;;;;5077053;28;20213;-91
2022/05/11 11:19:35;;;;;;;5.77;3.00;;;20.80;99.90;;;;;;5077036;28;20232;-91
2022/05/11 11:22:05;;;;;;;3.90;2.83;;;20.80;99.90;;;;;;5076245;28;20191;-91
2022/05/11 11:24:34;;;;;;;8.30;3.00;;;21.00;99.90;;;;;;5077222;28;20213;-90
2022/05/11 11:27:03;;;;;;;9.73;2.70;;;21.00;99.90;;;;;;5076677;28;20197;-89
2022/05/11 11:29:32;;;;;;;9.23;3.00;;;21.10;99.90;;;;;;5076361;28;20529;-91
2022/05/11 11:32:16;;;;;;;8.77;3.00;;;20.90;99.90;;;;;;5076020;28;20428;-90
2022/05/11 11:34:46;;;;;;;7.07;2.10;;;20.90;99.90;;;;;;5075812;28;20202;-88
2022/05/11 11:37:50;;;;;;;3.57;2.63;;;20.90;99.90;;;;;;5076313;28;20225;-89
2022/05/11 11:40:25;;;;;;;3.93;2.33;;;21.00;99.90;;;;;;5076381;28;20283;-83
2022/05/11 11:42:54;;;;;;;8.57;2.70;;;20.80;99.90;;;;;;5076460;28;20213;-88
2022/05/11 11:46:06;;;;;;;9.17;2.90;;;21.00;99.90;;;;;;5076215;28;20220;-90
2022/05/11 11:48:35;;;;;;;7.43;2.67;;;21.10;99.90;;;;;;5066133;28;20243;-89
2022/05/11 11:51:04;;;;;;;8.00;2.80;;;21.20;99.90;;;;;;5076731;28;20203;-89
2022/05/11 11:53:42;;;;;;;4.80;2.17;;;21.30;99.90;;;;;;5076768;28;20190;-89
2022/05/11 11:56:39;;;;;;;5.63;2.60;;;21.50;99.90;;;;;;5075442;28;20436;-89
2022/05/11 11:59:09;;;;;;;11.63;2.20;;;21.30;99.90;;;;;;5075991;28;20697;-92
2022/05/11 12:01:39;;;;;;;6.67;2.40;;;21.40;99.90;;;;;;5075484;28;20209;-89
2022/05/11 12:04:13;;;;;;;7.73;2.53;;;21.60;99.90;;;;;;5076291;28;20542;-85
2022/05/11 12:15:15;;;;;;;5.03;2.20;;;21.30;99.90;;;;;;5076096;28;20193;-87
2022/05/11 12:17:42;;;;;;;6.57;2.83;;;21.60;99.90;;;;;;5076421;28;20229;-85
2022/05/11 12:20:14;;;;;;;8.25;2.90;;;21.70;99.90;;;;;;5076942;28;20439;-86
2022/05/11 12:22:44;;;;;;;8.80;2.87;;;22.00;99.90;;;;;;5075283;28;20216;-87
2022/05/11 12:25:28;;;;;;;6.20;3.00;;;22.00;99.90;;;;;;5075369;28;20211;-87
2022/05/11 12:27:56;;;;;;;14.37;2.97;;;22.10;99.90;;;;;;5075418;28;20769;-89
2022/05/11 12:30:28;;;;;;;8.63;2.80;;;22.30;99.90;;;;;;5076795;28;20226;-87
2022/05/11 12:32:58;;;;;;;6.57;3.20;;;22.40;99.90;;;;;;5076458;28;20557;-87
2022/05/11 12:35:31;;;;;;;10.40;2.80;;;22.50;99.90;;;;;;5076494;28;20191;-87
2022/05/11 12:38:00;;;;;;;8.43;2.87;;;22.60;99.90;;;;;;5075064;28;20713;-86
2022/05/11 12:40:30;;;;;;;6.27;2.70;;;22.60;99.90;;;;;;5075217;28;20204;-87
2022/05/11 12:42:59;;;;;;;10.67;3.00;;;22.40;99.90;;;;;;5076322;28;20213;-87
2022/05/11 12:45:35;;;;;;;6.55;2.55;;;22.20;99.90;;;;;;5075757;28;20428;-86
2022/05/11 12:48:03;;;;;;;5.90;2.20;;;22.30;99.90;;;;;;5075124;28;20236;-88
2022/05/11 12:50:34;;;;;;;55.03;5.50;;;22.40;99.90;;;;;;5073740;28;20750;-88
2022/05/11 12:53:06;;;;;;;11.53;2.80;;;22.40;99.90;;;;;;5076067;28;20191;-89
2022/05/11 12:55:35;;;;;;;6.67;2.20;;;22.60;99.90;;;;;;5074936;28;20214;-90
2022/05/11 12:58:04;;;;;;;10.07;2.20;;;22.80;99.90;;;;;;5074761;28;20642;-89
2022/05/11 13:00:33;;;;;;;46.17;5.13;;;22.90;99.90;;;;;;5074764;28;20232;-91
2022/05/11 13:03:00;;;;;;;8.33;2.37;;;23.20;99.90;;;;;;5075637;28;20263;-91
2022/05/11 13:05:32;;;;;;;4.23;2.07;;;23.20;99.90;;;;;;5075741;28;20202;-88
2022/05/11 13:08:02;;;;;;;7.17;2.10;;;23.10;99.90;;;;;;5077769;28;20236;-88
2022/05/11 13:10:33;;;;;;;7.70;2.00;;;23.20;99.90;;;;;;5077679;28;20263;-90
2022/05/11 13:13:02;;;;;;;6.47;2.10;;;23.10;99.90;;;;;;5079143;28;20249;-85
2022/05/11 13:15:38;;;;;;;6.23;1.83;;;23.10;99.90;;;;;;5074063;28;20220;-83
2022/05/11 13:18:07;;;;;;;7.87;1.67;;;22.90;99.90;;;;;;5073526;28;20208;-80
2022/05/11 13:20:37;;;;;;;11.97;2.50;;;22.70;99.90;;;;;;5074162;28;20604;-80
2022/05/11 13:23:10;;;;;;;8.20;2.07;;;22.70;99.90;;;;;;5073793;28;20209;-80
2022/05/11 13:25:47;;;;;;;7.07;1.90;;;22.70;99.90;;;;;;5073792;28;20212;-85
2022/05/11 13:28:22;;;;;;;6.77;2.00;;;22.70;99.90;;;;;;5074415;28;20235;-87
2022/05/11 13:30:51;;;;;;;6.23;1.67;;;22.90;99.90;;;;;;5073616;28;20207;-85
2022/05/11 13:33:37;;;;;;;83.80;7.60;;;23.70;99.90;;;;;;5073710;28;20200;-85
2022/05/11 13:36:23;;;;;;;12.40;2.47;;;24.30;99.90;;;;;;5072867;28;20197;-84
2022/05/11 13:38:52;;;;;;;8.27;2.10;;;24.40;99.90;;;;;;5073456;28;20657;-84
2022/05/11 13:41:25;;;;;;;4.90;2.00;;;24.00;99.90;;;;;;5073305;28;20197;-82
2022/05/11 13:43:54;;;;;;;9.00;2.60;;;23.70;99.90;;;;;;5073575;28;20210;-86
2022/05/11 13:48:11;;;;;;;7.50;1.97;;;23.40;99.90;;;;;;5073442;28;20232;-85